sensor_id;sensor_type;location;lat;lon;timestamp;P1;durP1;ratioP1;P2;durP2;ratioP2
68300;SDS011;55146;47.468;18.806;2024-02-23T00:02:18;9.23;;;4.40;;
68300;SDS011;55146;47.468;18.806;2024-02-23T00:04:44;5.43;;;3.37;;
68300;SDS011;55146;47.468;18.806;2024-02-23T00:07:10;6.75;;;2.65;;
68300;SDS011;55146;47.468;18.806;2024-02-23T00:09:36;7.70;;;3.50;;
68300;SDS011;55146;47.468;18.806;2024-02-23T00:12:02;5.50;;;3.27;;
68300;SDS011;55146;47.468;18.806;2024-02-23T00:14:27;5.80;;;3.62;;
68300;SDS011;55146;47.468;18.806;2024-02-23T00:16:53;6.33;;;3.93;;
68300;SDS011;55146;47.468;18.806;2024-02-23T00:19:18;7.33;;;3.63;;
68300;SDS011;55146;47.468;18.806;2024-02-23T00:21:45;5.57;;;3.42;;
68300;SDS011;55146;47.468;18.806;2024-02-23T00:24:15;5.78;;;3.30;;
68300;SDS011;55146;47.468;18.806;2024-02-23T00:26:41;5.80;;;3.20;;
68300;SDS011;55146;47.468;18.806;2024-02-23T00:29:07;7.03;;;3.50;;
68300;SDS011;55146;47.468;18.806;2024-02-23T00:31:32;5.90;;;3.73;;
68300;SDS011;55146;47.468;18.806;2024-02-23T00:33:57;6.47;;;3.58;;
68300;SDS011;55146;47.468;18.806;2024-02-23T00:36:23;7.53;;;3.20;;
68300;SDS011;55146;47.468;18.806;2024-02-23T00:38:48;4.87;;;3.03;;
68300;SDS011;55146;47.468;18.806;2024-02-23T00:41:14;8.20;;;4.30;;
68300;SDS011;55146;47.468;18.806;2024-02-23T00:43:39;6.37;;;3.50;;
68300;SDS011;55146;47.468;18.806;2024-02-23T00:46:06;6.65;;;4.35;;
68300;SDS011;55146;47.468;18.806;2024-02-23T00:48:32;7.00;;;3.80;;
68300;SDS011;55146;47.468;18.806;2024-02-23T00:50:57;7.57;;;4.20;;
68300;SDS011;55146;47.468;18.806;2024-02-23T00:53:22;5.53;;;3.70;;
68300;SDS011;55146;47.468;18.806;2024-02-23T00:55:48;5.73;;;3.97;;
68300;SDS011;55146;47.468;18.806;2024-02-23T00:58:13;6.05;;;3.80;;
68300;SDS011;55146;47.468;18.806;2024-02-23T01:00:40;5.57;;;3.50;;
68300;SDS011;55146;47.468;18.806;2024-02-23T01:03:06;6.45;;;4.37;;
68300;SDS011;55146;47.468;18.806;2024-02-23T01:05:32;6.60;;;3.57;;
68300;SDS011;55146;47.468;18.806;2024-02-23T01:07:57;7.00;;;4.40;;
68300;SDS011;55146;47.468;18.806;2024-02-23T01:10:23;6.93;;;4.40;;
68300;SDS011;55146;47.468;18.806;2024-02-23T01:12:48;5.83;;;3.80;;
68300;SDS011;55146;47.468;18.806;2024-02-23T01:15:14;6.10;;;3.63;;
68300;SDS011;55146;47.468;18.806;2024-02-23T01:17:39;8.18;;;3.65;;
68300;SDS011;55146;47.468;18.806;2024-02-23T01:20:05;7.60;;;4.70;;
68300;SDS011;55146;47.468;18.806;2024-02-23T01:22:30;6.05;;;4.03;;
68300;SDS011;55146;47.468;18.806;2024-02-23T01:24:56;5.70;;;3.40;;
68300;SDS011;55146;47.468;18.806;2024-02-23T01:27:21;6.93;;;4.10;;
68300;SDS011;55146;47.468;18.806;2024-02-23T01:29:47;7.03;;;4.40;;
68300;SDS011;55146;47.468;18.806;2024-02-23T01:32:12;6.43;;;3.67;;
68300;SDS011;55146;47.468;18.806;2024-02-23T01:34:38;6.73;;;4.03;;
68300;SDS011;55146;47.468;18.806;2024-02-23T01:37:03;5.43;;;4.20;;
68300;SDS011;55146;47.468;18.806;2024-02-23T01:39:29;7.43;;;3.83;;
68300;SDS011;55146;47.468;18.806;2024-02-23T01:41:54;6.70;;;4.15;;
68300;SDS011;55146;47.468;18.806;2024-02-23T01:44:20;6.97;;;4.33;;
68300;SDS011;55146;47.468;18.806;2024-02-23T01:46:46;7.45;;;4.37;;
68300;SDS011;55146;47.468;18.806;2024-02-23T01:49:12;7.63;;;4.67;;
68300;SDS011;55146;47.468;18.806;2024-02-23T01:51:38;6.12;;;3.62;;
68300;SDS011;55146;47.468;18.806;2024-02-23T01:54:04;6.53;;;4.72;;
68300;SDS011;55146;47.468;18.806;2024-02-23T01:56:31;6.82;;;4.25;;
68300;SDS011;55146;47.468;18.806;2024-02-23T01:58:58;7.63;;;4.57;;
68300;SDS011;55146;47.468;18.806;2024-02-23T02:01:24;6.32;;;4.57;;
68300;SDS011;55146;47.468;18.806;2024-02-23T02:03:50;7.07;;;4.32;;
68300;SDS011;55146;47.468;18.806;2024-02-23T02:06:15;6.00;;;4.07;;
68300;SDS011;55146;47.468;18.806;2024-02-23T02:08:41;7.03;;;3.70;;
68300;SDS011;55146;47.468;18.806;2024-02-23T02:11:06;6.30;;;4.47;;
68300;SDS011;55146;47.468;18.806;2024-02-23T02:13:31;5.93;;;4.17;;
68300;SDS011;55146;47.468;18.806;2024-02-23T02:15:58;6.67;;;3.57;;
68300;SDS011;55146;47.468;18.806;2024-02-23T02:18:25;6.10;;;4.40;;
68300;SDS011;55146;47.468;18.806;2024-02-23T02:20:51;7.57;;;4.83;;
68300;SDS011;55146;47.468;18.806;2024-02-23T02:23:19;7.85;;;4.10;;
68300;SDS011;55146;47.468;18.806;2024-02-23T02:25:44;7.13;;;4.27;;
68300;SDS011;55146;47.468;18.806;2024-02-23T02:28:09;7.33;;;4.73;;
68300;SDS011;55146;47.468;18.806;2024-02-23T02:30:36;7.47;;;3.85;;
68300;SDS011;55146;47.468;18.806;2024-02-23T02:33:02;6.32;;;3.97;;
68300;SDS011;55146;47.468;18.806;2024-02-23T02:35:27;7.70;;;4.00;;
68300;SDS011;55146;47.468;18.806;2024-02-23T02:37:53;9.83;;;4.87;;
68300;SDS011;55146;47.468;18.806;2024-02-23T02:40:19;7.30;;;4.20;;
68300;SDS011;55146;47.468;18.806;2024-02-23T02:42:44;7.37;;;4.70;;
68300;SDS011;55146;47.468;18.806;2024-02-23T02:45:09;6.67;;;4.10;;
68300;SDS011;55146;47.468;18.806;2024-02-23T02:47:34;7.87;;;4.23;;
68300;SDS011;55146;47.468;18.806;2024-02-23T02:50:01;7.50;;;4.93;;
68300;SDS011;55146;47.468;18.806;2024-02-23T02:52:26;6.97;;;3.77;;
68300;SDS011;55146;47.468;18.806;2024-02-23T02:54:53;8.50;;;3.72;;
68300;SDS011;55146;47.468;18.806;2024-02-23T02:57:19;7.73;;;4.27;;
68300;SDS011;55146;47.468;18.806;2024-02-23T02:59:44;7.00;;;4.33;;
68300;SDS011;55146;47.468;18.806;2024-02-23T03:02:11;5.90;;;3.53;;
68300;SDS011;55146;47.468;18.806;2024-02-23T03:04:36;10.02;;;4.85;;
68300;SDS011;55146;47.468;18.806;2024-02-23T03:07:02;9.03;;;4.30;;
68300;SDS011;55146;47.468;18.806;2024-02-23T03:09:27;7.67;;;4.80;;
68300;SDS011;55146;47.468;18.806;2024-02-23T03:11:52;9.13;;;4.40;;
68300;SDS011;55146;47.468;18.806;2024-02-23T03:14:18;6.63;;;4.03;;
68300;SDS011;55146;47.468;18.806;2024-02-23T03:16:45;6.18;;;4.32;;
68300;SDS011;55146;47.468;18.806;2024-02-23T03:19:12;7.60;;;4.30;;
68300;SDS011;55146;47.468;18.806;2024-02-23T03:21:38;6.80;;;4.00;;
68300;SDS011;55146;47.468;18.806;2024-02-23T03:24:03;7.22;;;4.75;;
68300;SDS011;55146;47.468;18.806;2024-02-23T03:26:29;7.37;;;5.03;;
68300;SDS011;55146;47.468;18.806;2024-02-23T03:28:54;6.53;;;3.83;;
68300;SDS011;55146;47.468;18.806;2024-02-23T03:31:20;6.60;;;4.00;;
68300;SDS011;55146;47.468;18.806;2024-02-23T03:33:45;8.17;;;4.70;;
68300;SDS011;55146;47.468;18.806;2024-02-23T03:36:10;6.87;;;3.93;;
68300;SDS011;55146;47.468;18.806;2024-02-23T03:38:35;7.20;;;4.80;;
68300;SDS011;55146;47.468;18.806;2024-02-23T03:41:01;7.18;;;3.92;;
68300;SDS011;55146;47.468;18.806;2024-02-23T03:43:26;7.37;;;3.80;;
68300;SDS011;55146;47.468;18.806;2024-02-23T03:45:52;6.87;;;4.70;;
68300;SDS011;55146;47.468;18.806;2024-02-23T03:48:17;8.75;;;4.50;;
68300;SDS011;55146;47.468;18.806;2024-02-23T03:50:43;7.13;;;4.00;;
68300;SDS011;55146;47.468;18.806;2024-02-23T03:53:08;7.23;;;4.77;;
68300;SDS011;55146;47.468;18.806;2024-02-23T03:55:33;8.23;;;4.80;;
68300;SDS011;55146;47.468;18.806;2024-02-23T03:57:59;10.07;;;6.27;;
68300;SDS011;55146;47.468;18.806;2024-02-23T04:00:24;7.43;;;5.20;;
68300;SDS011;55146;47.468;18.806;2024-02-23T04:02:49;8.40;;;4.97;;
68300;SDS011;55146;47.468;18.806;2024-02-23T04:05:15;8.37;;;4.90;;
68300;SDS011;55146;47.468;18.806;2024-02-23T04:07:40;8.63;;;4.97;;
68300;SDS011;55146;47.468;18.806;2024-02-23T04:10:06;7.07;;;4.47;;
68300;SDS011;55146;47.468;18.806;2024-02-23T04:12:32;7.87;;;4.53;;
68300;SDS011;55146;47.468;18.806;2024-02-23T04:14:57;9.43;;;5.20;;
68300;SDS011;55146;47.468;18.806;2024-02-23T04:17:23;7.57;;;5.07;;
68300;SDS011;55146;47.468;18.806;2024-02-23T04:19:48;6.80;;;4.47;;
68300;SDS011;55146;47.468;18.806;2024-02-23T04:22:13;7.47;;;5.15;;
68300;SDS011;55146;47.468;18.806;2024-02-23T04:24:39;6.33;;;4.47;;
68300;SDS011;55146;47.468;18.806;2024-02-23T04:27:05;8.70;;;4.93;;
68300;SDS011;55146;47.468;18.806;2024-02-23T04:29:33;8.77;;;4.43;;
68300;SDS011;55146;47.468;18.806;2024-02-23T04:31:59;8.77;;;4.43;;
68300;SDS011;55146;47.468;18.806;2024-02-23T04:34:28;8.85;;;5.57;;
68300;SDS011;55146;47.468;18.806;2024-02-23T04:36:54;9.97;;;5.47;;
68300;SDS011;55146;47.468;18.806;2024-02-23T04:39:20;9.00;;;4.87;;
68300;SDS011;55146;47.468;18.806;2024-02-23T04:41:46;8.30;;;4.40;;
68300;SDS011;55146;47.468;18.806;2024-02-23T04:44:11;8.03;;;4.73;;
68300;SDS011;55146;47.468;18.806;2024-02-23T04:46:36;7.30;;;4.90;;
68300;SDS011;55146;47.468;18.806;2024-02-23T04:49:02;6.60;;;4.17;;
68300;SDS011;55146;47.468;18.806;2024-02-23T04:51:27;6.62;;;4.30;;
68300;SDS011;55146;47.468;18.806;2024-02-23T04:53:53;6.53;;;4.20;;
68300;SDS011;55146;47.468;18.806;2024-02-23T04:56:18;7.43;;;4.60;;
68300;SDS011;55146;47.468;18.806;2024-02-23T04:58:44;7.53;;;5.25;;
68300;SDS011;55146;47.468;18.806;2024-02-23T05:01:09;8.73;;;4.80;;
68300;SDS011;55146;47.468;18.806;2024-02-23T05:03:36;7.03;;;4.62;;
68300;SDS011;55146;47.468;18.806;2024-02-23T05:06:02;7.13;;;5.53;;
68300;SDS011;55146;47.468;18.806;2024-02-23T05:08:27;6.10;;;4.53;;
68300;SDS011;55146;47.468;18.806;2024-02-23T05:10:55;6.25;;;3.60;;
68300;SDS011;55146;47.468;18.806;2024-02-23T05:13:21;6.03;;;4.25;;
68300;SDS011;55146;47.468;18.806;2024-02-23T05:15:46;7.90;;;4.63;;
68300;SDS011;55146;47.468;18.806;2024-02-23T05:18:11;6.17;;;4.17;;
68300;SDS011;55146;47.468;18.806;2024-02-23T05:20:36;5.80;;;4.33;;
68300;SDS011;55146;47.468;18.806;2024-02-23T05:23:02;5.70;;;3.53;;
68300;SDS011;55146;47.468;18.806;2024-02-23T05:25:27;5.43;;;3.87;;
68300;SDS011;55146;47.468;18.806;2024-02-23T05:27:53;4.97;;;3.00;;
68300;SDS011;55146;47.468;18.806;2024-02-23T05:30:18;4.80;;;2.97;;
68300;SDS011;55146;47.468;18.806;2024-02-23T05:32:44;4.37;;;2.30;;
68300;SDS011;55146;47.468;18.806;2024-02-23T05:35:09;4.28;;;2.75;;
68300;SDS011;55146;47.468;18.806;2024-02-23T05:37:37;3.90;;;2.10;;
68300;SDS011;55146;47.468;18.806;2024-02-23T05:40:03;4.40;;;2.87;;
68300;SDS011;55146;47.468;18.806;2024-02-23T05:42:35;3.90;;;2.37;;
68300;SDS011;55146;47.468;18.806;2024-02-23T05:45:01;4.75;;;2.33;;
68300;SDS011;55146;47.468;18.806;2024-02-23T05:47:26;3.60;;;2.33;;
68300;SDS011;55146;47.468;18.806;2024-02-23T05:49:51;3.10;;;1.60;;
68300;SDS011;55146;47.468;18.806;2024-02-23T05:52:17;3.33;;;1.77;;
68300;SDS011;55146;47.468;18.806;2024-02-23T05:54:42;4.27;;;2.83;;
68300;SDS011;55146;47.468;18.806;2024-02-23T05:57:07;3.70;;;1.80;;
68300;SDS011;55146;47.468;18.806;2024-02-23T05:59:33;5.23;;;1.73;;
68300;SDS011;55146;47.468;18.806;2024-02-23T06:01:58;4.13;;;2.20;;
68300;SDS011;55146;47.468;18.806;2024-02-23T06:04:24;4.12;;;2.58;;
68300;SDS011;55146;47.468;18.806;2024-02-23T06:06:49;5.70;;;2.90;;
68300;SDS011;55146;47.468;18.806;2024-02-23T06:09:15;3.80;;;2.30;;
68300;SDS011;55146;47.468;18.806;2024-02-23T06:11:40;3.37;;;1.42;;
68300;SDS011;55146;47.468;18.806;2024-02-23T06:14:07;3.50;;;1.70;;
68300;SDS011;55146;47.468;18.806;2024-02-23T06:16:32;3.30;;;2.07;;
68300;SDS011;55146;47.468;18.806;2024-02-23T06:18:58;4.37;;;2.47;;
68300;SDS011;55146;47.468;18.806;2024-02-23T06:21:23;3.67;;;2.00;;
68300;SDS011;55146;47.468;18.806;2024-02-23T06:23:48;3.92;;;2.00;;
68300;SDS011;55146;47.468;18.806;2024-02-23T06:26:14;4.83;;;2.07;;
68300;SDS011;55146;47.468;18.806;2024-02-23T06:28:40;4.47;;;2.00;;
68300;SDS011;55146;47.468;18.806;2024-02-23T06:31:06;4.15;;;2.25;;
68300;SDS011;55146;47.468;18.806;2024-02-23T06:33:32;4.43;;;2.40;;
68300;SDS011;55146;47.468;18.806;2024-02-23T06:35:58;3.60;;;2.27;;
68300;SDS011;55146;47.468;18.806;2024-02-23T06:38:23;4.23;;;2.10;;
68300;SDS011;55146;47.468;18.806;2024-02-23T06:40:48;4.90;;;2.70;;
68300;SDS011;55146;47.468;18.806;2024-02-23T06:43:14;6.03;;;2.50;;
68300;SDS011;55146;47.468;18.806;2024-02-23T06:45:39;4.37;;;2.83;;
68300;SDS011;55146;47.468;18.806;2024-02-23T06:48:05;5.53;;;3.37;;
68300;SDS011;55146;47.468;18.806;2024-02-23T06:50:30;5.00;;;3.23;;
68300;SDS011;55146;47.468;18.806;2024-02-23T06:52:56;6.23;;;3.27;;
68300;SDS011;55146;47.468;18.806;2024-02-23T06:55:21;6.27;;;2.90;;
68300;SDS011;55146;47.468;18.806;2024-02-23T06:57:46;6.47;;;4.00;;
68300;SDS011;55146;47.468;18.806;2024-02-23T07:00:12;7.30;;;3.63;;
68300;SDS011;55146;47.468;18.806;2024-02-23T07:02:38;6.20;;;3.58;;
68300;SDS011;55146;47.468;18.806;2024-02-23T07:05:03;7.17;;;4.40;;
68300;SDS011;55146;47.468;18.806;2024-02-23T07:07:29;6.15;;;3.72;;
68300;SDS011;55146;47.468;18.806;2024-02-23T07:09:55;5.83;;;3.50;;
68300;SDS011;55146;47.468;18.806;2024-02-23T07:12:21;6.05;;;3.72;;
68300;SDS011;55146;47.468;18.806;2024-02-23T07:14:46;7.43;;;3.60;;
68300;SDS011;55146;47.468;18.806;2024-02-23T07:17:16;6.05;;;4.35;;
68300;SDS011;55146;47.468;18.806;2024-02-23T07:19:42;6.28;;;3.65;;
68300;SDS011;55146;47.468;18.806;2024-02-23T07:22:07;7.37;;;3.80;;
68300;SDS011;55146;47.468;18.806;2024-02-23T07:24:32;6.90;;;3.80;;
68300;SDS011;55146;47.468;18.806;2024-02-23T07:26:58;5.67;;;3.83;;
68300;SDS011;55146;47.468;18.806;2024-02-23T07:29:23;7.17;;;4.60;;
68300;SDS011;55146;47.468;18.806;2024-02-23T07:31:48;5.82;;;3.47;;
68300;SDS011;55146;47.468;18.806;2024-02-23T07:34:14;7.90;;;4.93;;
68300;SDS011;55146;47.468;18.806;2024-02-23T07:36:39;7.60;;;3.87;;
68300;SDS011;55146;47.468;18.806;2024-02-23T07:39:04;7.50;;;4.93;;
68300;SDS011;55146;47.468;18.806;2024-02-23T07:41:30;7.13;;;4.37;;
68300;SDS011;55146;47.468;18.806;2024-02-23T07:43:55;6.70;;;4.63;;
68300;SDS011;55146;47.468;18.806;2024-02-23T07:46:20;7.77;;;4.93;;
68300;SDS011;55146;47.468;18.806;2024-02-23T07:48:47;8.30;;;5.72;;
68300;SDS011;55146;47.468;18.806;2024-02-23T07:51:13;8.23;;;4.73;;
68300;SDS011;55146;47.468;18.806;2024-02-23T07:53:38;8.90;;;5.37;;
68300;SDS011;55146;47.468;18.806;2024-02-23T07:56:04;8.07;;;4.97;;
68300;SDS011;55146;47.468;18.806;2024-02-23T07:58:32;7.60;;;4.68;;
68300;SDS011;55146;47.468;18.806;2024-02-23T08:00:57;6.03;;;3.40;;
68300;SDS011;55146;47.468;18.806;2024-02-23T08:03:23;6.87;;;4.40;;
68300;SDS011;55146;47.468;18.806;2024-02-23T08:05:48;5.27;;;3.80;;
68300;SDS011;55146;47.468;18.806;2024-02-23T08:08:13;5.33;;;3.23;;
68300;SDS011;55146;47.468;18.806;2024-02-23T08:10:39;6.03;;;3.70;;
68300;SDS011;55146;47.468;18.806;2024-02-23T08:13:04;6.37;;;3.70;;
68300;SDS011;55146;47.468;18.806;2024-02-23T08:15:29;5.07;;;3.13;;
68300;SDS011;55146;47.468;18.806;2024-02-23T08:17:55;5.40;;;3.00;;
68300;SDS011;55146;47.468;18.806;2024-02-23T08:20:20;5.50;;;3.30;;
68300;SDS011;55146;47.468;18.806;2024-02-23T08:22:46;4.93;;;2.70;;
68300;SDS011;55146;47.468;18.806;2024-02-23T08:25:11;6.27;;;3.77;;
68300;SDS011;55146;47.468;18.806;2024-02-23T08:27:37;6.00;;;3.30;;
68300;SDS011;55146;47.468;18.806;2024-02-23T08:30:02;6.17;;;3.27;;
68300;SDS011;55146;47.468;18.806;2024-02-23T08:32:28;8.63;;;3.97;;
68300;SDS011;55146;47.468;18.806;2024-02-23T08:34:53;8.43;;;4.23;;
68300;SDS011;55146;47.468;18.806;2024-02-23T08:37:24;7.10;;;3.85;;
68300;SDS011;55146;47.468;18.806;2024-02-23T08:39:52;7.40;;;3.62;;
68300;SDS011;55146;47.468;18.806;2024-02-23T08:42:18;5.80;;;3.60;;
68300;SDS011;55146;47.468;18.806;2024-02-23T08:44:43;5.60;;;3.00;;
68300;SDS011;55146;47.468;18.806;2024-02-23T08:47:08;5.40;;;3.53;;
68300;SDS011;55146;47.468;18.806;2024-02-23T08:49:34;5.00;;;2.80;;
68300;SDS011;55146;47.468;18.806;2024-02-23T08:51:59;8.47;;;3.37;;
68300;SDS011;55146;47.468;18.806;2024-02-23T08:54:25;5.40;;;3.43;;
68300;SDS011;55146;47.468;18.806;2024-02-23T08:56:50;6.07;;;2.60;;
68300;SDS011;55146;47.468;18.806;2024-02-23T08:59:15;4.95;;;2.60;;
68300;SDS011;55146;47.468;18.806;2024-02-23T09:01:41;4.90;;;2.97;;
68300;SDS011;55146;47.468;18.806;2024-02-23T09:04:06;4.73;;;2.67;;
68300;SDS011;55146;47.468;18.806;2024-02-23T09:06:32;6.83;;;4.10;;
68300;SDS011;55146;47.468;18.806;2024-02-23T09:08:58;6.90;;;3.97;;
68300;SDS011;55146;47.468;18.806;2024-02-23T09:11:23;7.13;;;3.30;;
68300;SDS011;55146;47.468;18.806;2024-02-23T09:13:49;5.15;;;3.00;;
68300;SDS011;55146;47.468;18.806;2024-02-23T09:16:14;4.53;;;2.90;;
68300;SDS011;55146;47.468;18.806;2024-02-23T09:18:39;4.80;;;2.70;;
68300;SDS011;55146;47.468;18.806;2024-02-23T09:21:05;5.37;;;2.73;;
68300;SDS011;55146;47.468;18.806;2024-02-23T09:23:30;4.73;;;2.43;;
68300;SDS011;55146;47.468;18.806;2024-02-23T09:25:56;4.07;;;2.40;;
68300;SDS011;55146;47.468;18.806;2024-02-23T09:28:21;4.00;;;2.08;;
68300;SDS011;55146;47.468;18.806;2024-02-23T09:30:46;3.70;;;2.27;;
68300;SDS011;55146;47.468;18.806;2024-02-23T09:33:12;3.30;;;1.50;;
68300;SDS011;55146;47.468;18.806;2024-02-23T09:35:37;3.73;;;2.37;;
68300;SDS011;55146;47.468;18.806;2024-02-23T09:38:02;4.00;;;1.90;;
68300;SDS011;55146;47.468;18.806;2024-02-23T09:40:28;3.47;;;1.87;;
68300;SDS011;55146;47.468;18.806;2024-02-23T09:42:57;3.50;;;2.20;;
68300;SDS011;55146;47.468;18.806;2024-02-23T09:45:26;4.22;;;2.17;;
68300;SDS011;55146;47.468;18.806;2024-02-23T09:47:53;3.43;;;1.90;;
68300;SDS011;55146;47.468;18.806;2024-02-23T09:50:21;3.30;;;1.70;;
68300;SDS011;55146;47.468;18.806;2024-02-23T09:52:48;4.93;;;3.33;;
68300;SDS011;55146;47.468;18.806;2024-02-23T09:55:15;4.30;;;2.40;;
68300;SDS011;55146;47.468;18.806;2024-02-23T09:57:44;4.22;;;2.80;;
68300;SDS011;55146;47.468;18.806;2024-02-23T10:00:12;4.40;;;3.00;;
68300;SDS011;55146;47.468;18.806;2024-02-23T10:02:40;4.10;;;2.17;;
68300;SDS011;55146;47.468;18.806;2024-02-23T10:05:06;4.80;;;2.15;;
68300;SDS011;55146;47.468;18.806;2024-02-23T10:07:33;4.32;;;2.42;;
68300;SDS011;55146;47.468;18.806;2024-02-23T10:09:58;5.13;;;3.10;;
68300;SDS011;55146;47.468;18.806;2024-02-23T10:12:24;5.93;;;3.60;;
68300;SDS011;55146;47.468;18.806;2024-02-23T10:14:49;5.53;;;3.47;;
68300;SDS011;55146;47.468;18.806;2024-02-23T10:17:15;7.73;;;3.90;;
68300;SDS011;55146;47.468;18.806;2024-02-23T10:19:40;6.10;;;3.57;;
68300;SDS011;55146;47.468;18.806;2024-02-23T10:22:05;4.73;;;2.73;;
68300;SDS011;55146;47.468;18.806;2024-02-23T10:24:31;5.30;;;3.30;;
68300;SDS011;55146;47.468;18.806;2024-02-23T10:26:56;4.67;;;2.63;;
68300;SDS011;55146;47.468;18.806;2024-02-23T10:29:23;5.37;;;2.73;;
68300;SDS011;55146;47.468;18.806;2024-02-23T10:31:48;4.00;;;2.67;;
68300;SDS011;55146;47.468;18.806;2024-02-23T10:34:17;4.00;;;2.70;;
68300;SDS011;55146;47.468;18.806;2024-02-23T10:36:44;6.12;;;3.22;;
68300;SDS011;55146;47.468;18.806;2024-02-23T10:39:14;6.37;;;3.63;;
68300;SDS011;55146;47.468;18.806;2024-02-23T10:41:43;5.90;;;3.45;;
68300;SDS011;55146;47.468;18.806;2024-02-23T10:44:18;6.55;;;4.00;;
68300;SDS011;55146;47.468;18.806;2024-02-23T10:46:43;7.53;;;4.43;;
68300;SDS011;55146;47.468;18.806;2024-02-23T10:49:10;6.20;;;4.50;;
68300;SDS011;55146;47.468;18.806;2024-02-23T10:51:37;5.20;;;3.40;;
68300;SDS011;55146;47.468;18.806;2024-02-23T10:54:07;5.87;;;4.00;;
68300;SDS011;55146;47.468;18.806;2024-02-23T10:56:33;5.43;;;3.40;;
68300;SDS011;55146;47.468;18.806;2024-02-23T10:58:58;5.60;;;3.62;;
68300;SDS011;55146;47.468;18.806;2024-02-23T11:01:24;8.20;;;3.97;;
68300;SDS011;55146;47.468;18.806;2024-02-23T11:03:50;6.05;;;3.85;;
68300;SDS011;55146;47.468;18.806;2024-02-23T11:06:18;7.67;;;4.30;;
68300;SDS011;55146;47.468;18.806;2024-02-23T11:08:46;6.97;;;4.40;;
68300;SDS011;55146;47.468;18.806;2024-02-23T11:11:15;6.18;;;4.40;;
68300;SDS011;55146;47.468;18.806;2024-02-23T11:13:43;8.32;;;4.75;;
68300;SDS011;55146;47.468;18.806;2024-02-23T11:16:09;7.53;;;4.18;;
68300;SDS011;55146;47.468;18.806;2024-02-23T11:18:36;6.90;;;5.00;;
68300;SDS011;55146;47.468;18.806;2024-02-23T11:21:04;6.47;;;3.75;;
68300;SDS011;55146;47.468;18.806;2024-02-23T11:23:43;8.48;;;4.70;;
68300;SDS011;55146;47.468;18.806;2024-02-23T11:26:11;7.10;;;4.37;;
68300;SDS011;55146;47.468;18.806;2024-02-23T11:31:12;10.20;;;5.37;;
68300;SDS011;55146;47.468;18.806;2024-02-23T11:33:38;12.73;;;7.75;;
68300;SDS011;55146;47.468;18.806;2024-02-23T11:36:07;10.83;;;7.33;;
68300;SDS011;55146;47.468;18.806;2024-02-23T11:38:33;9.90;;;5.95;;
68300;SDS011;55146;47.468;18.806;2024-02-23T11:40:59;8.52;;;5.72;;
68300;SDS011;55146;47.468;18.806;2024-02-23T11:43:27;8.02;;;5.35;;
68300;SDS011;55146;47.468;18.806;2024-02-23T11:45:52;11.55;;;5.82;;
68300;SDS011;55146;47.468;18.806;2024-02-23T11:48:18;11.93;;;7.30;;
68300;SDS011;55146;47.468;18.806;2024-02-23T11:50:44;14.13;;;7.05;;
68300;SDS011;55146;47.468;18.806;2024-02-23T11:53:10;9.50;;;4.47;;
68300;SDS011;55146;47.468;18.806;2024-02-23T11:55:35;15.03;;;6.63;;
68300;SDS011;55146;47.468;18.806;2024-02-23T11:58:00;10.53;;;3.80;;
68300;SDS011;55146;47.468;18.806;2024-02-23T12:00:26;5.20;;;3.15;;
68300;SDS011;55146;47.468;18.806;2024-02-23T12:02:54;6.27;;;3.30;;
68300;SDS011;55146;47.468;18.806;2024-02-23T12:05:20;9.80;;;4.68;;
68300;SDS011;55146;47.468;18.806;2024-02-23T12:07:45;5.90;;;3.50;;
68300;SDS011;55146;47.468;18.806;2024-02-23T12:10:10;6.22;;;3.40;;
68300;SDS011;55146;47.468;18.806;2024-02-23T12:12:36;9.03;;;7.20;;
68300;SDS011;55146;47.468;18.806;2024-02-23T12:15:02;6.57;;;3.40;;
68300;SDS011;55146;47.468;18.806;2024-02-23T12:17:27;5.28;;;2.83;;
68300;SDS011;55146;47.468;18.806;2024-02-23T12:19:59;7.87;;;3.53;;
68300;SDS011;55146;47.468;18.806;2024-02-23T12:22:25;6.35;;;3.60;;
68300;SDS011;55146;47.468;18.806;2024-02-23T12:24:50;7.23;;;4.10;;
68300;SDS011;55146;47.468;18.806;2024-02-23T12:27:16;7.03;;;4.60;;
68300;SDS011;55146;47.468;18.806;2024-02-23T12:29:50;8.57;;;5.45;;
68300;SDS011;55146;47.468;18.806;2024-02-23T12:32:22;6.45;;;3.83;;
68300;SDS011;55146;47.468;18.806;2024-02-23T12:34:48;7.80;;;4.25;;
68300;SDS011;55146;47.468;18.806;2024-02-23T12:37:17;7.57;;;3.90;;
68300;SDS011;55146;47.468;18.806;2024-02-23T12:39:43;8.52;;;4.55;;
68300;SDS011;55146;47.468;18.806;2024-02-23T12:42:09;11.65;;;5.22;;
68300;SDS011;55146;47.468;18.806;2024-02-23T12:44:34;9.60;;;6.00;;
68300;SDS011;55146;47.468;18.806;2024-02-23T12:47:00;7.87;;;4.93;;
68300;SDS011;55146;47.468;18.806;2024-02-23T12:49:25;14.32;;;8.43;;
68300;SDS011;55146;47.468;18.806;2024-02-23T12:51:51;16.03;;;7.77;;
68300;SDS011;55146;47.468;18.806;2024-02-23T12:54:16;12.53;;;6.57;;
68300;SDS011;55146;47.468;18.806;2024-02-23T12:56:41;8.67;;;5.10;;
68300;SDS011;55146;47.468;18.806;2024-02-23T12:59:07;9.43;;;5.57;;
68300;SDS011;55146;47.468;18.806;2024-02-23T13:01:34;8.98;;;6.45;;
68300;SDS011;55146;47.468;18.806;2024-02-23T13:04:02;10.80;;;8.27;;
68300;SDS011;55146;47.468;18.806;2024-02-23T13:06:36;15.70;;;11.10;;
68300;SDS011;55146;47.468;18.806;2024-02-23T13:09:03;18.35;;;12.45;;
68300;SDS011;55146;47.468;18.806;2024-02-23T13:11:29;11.90;;;8.15;;
68300;SDS011;55146;47.468;18.806;2024-02-23T13:13:54;9.60;;;6.50;;
68300;SDS011;55146;47.468;18.806;2024-02-23T13:16:20;9.30;;;6.37;;
68300;SDS011;55146;47.468;18.806;2024-02-23T13:18:45;10.27;;;5.43;;
68300;SDS011;55146;47.468;18.806;2024-02-23T13:21:12;12.35;;;6.65;;
68300;SDS011;55146;47.468;18.806;2024-02-23T13:23:37;11.73;;;6.57;;
68300;SDS011;55146;47.468;18.806;2024-02-23T13:26:03;8.55;;;6.35;;
68300;SDS011;55146;47.468;18.806;2024-02-23T13:28:29;10.60;;;5.77;;
68300;SDS011;55146;47.468;18.806;2024-02-23T13:30:54;10.63;;;6.50;;
68300;SDS011;55146;47.468;18.806;2024-02-23T13:33:20;14.53;;;7.47;;
68300;SDS011;55146;47.468;18.806;2024-02-23T13:35:47;22.35;;;9.82;;
68300;SDS011;55146;47.468;18.806;2024-02-23T13:38:12;16.50;;;7.73;;
68300;SDS011;55146;47.468;18.806;2024-02-23T13:40:38;15.27;;;8.43;;
68300;SDS011;55146;47.468;18.806;2024-02-23T13:43:03;13.93;;;8.50;;
68300;SDS011;55146;47.468;18.806;2024-02-23T13:45:29;15.20;;;9.60;;
68300;SDS011;55146;47.468;18.806;2024-02-23T13:48:02;14.67;;;9.57;;
68300;SDS011;55146;47.468;18.806;2024-02-23T13:50:28;15.10;;;9.32;;
68300;SDS011;55146;47.468;18.806;2024-02-23T13:52:54;12.50;;;8.33;;
68300;SDS011;55146;47.468;18.806;2024-02-23T13:55:20;15.40;;;8.85;;
68300;SDS011;55146;47.468;18.806;2024-02-23T13:57:46;14.60;;;9.53;;
68300;SDS011;55146;47.468;18.806;2024-02-23T14:00:12;14.77;;;9.05;;
68300;SDS011;55146;47.468;18.806;2024-02-23T14:02:38;15.35;;;8.80;;
68300;SDS011;55146;47.468;18.806;2024-02-23T14:05:07;14.87;;;9.88;;
68300;SDS011;55146;47.468;18.806;2024-02-23T14:07:33;14.80;;;8.83;;
68300;SDS011;55146;47.468;18.806;2024-02-23T14:09:58;14.02;;;9.18;;
68300;SDS011;55146;47.468;18.806;2024-02-23T14:12:24;16.00;;;10.37;;
68300;SDS011;55146;47.468;18.806;2024-02-23T14:14:49;12.67;;;10.13;;
68300;SDS011;55146;47.468;18.806;2024-02-23T14:17:15;20.00;;;11.07;;
68300;SDS011;55146;47.468;18.806;2024-02-23T14:19:40;17.40;;;9.80;;
68300;SDS011;55146;47.468;18.806;2024-02-23T14:22:05;19.00;;;11.17;;
68300;SDS011;55146;47.468;18.806;2024-02-23T14:24:31;16.10;;;11.60;;
68300;SDS011;55146;47.468;18.806;2024-02-23T14:26:57;17.57;;;10.60;;
68300;SDS011;55146;47.468;18.806;2024-02-23T14:29:22;15.70;;;10.30;;